createdAt,value
2018-02-13T00:00:02.278Z,0
2018-02-13T00:01:12.216Z,0
2018-02-13T00:02:22.366Z,0
2018-02-13T00:03:32.507Z,0
2018-02-13T00:04:42.629Z,0
2018-02-13T00:05:52.931Z,0
2018-02-13T00:07:02.849Z,0
2018-02-13T00:08:12.983Z,0
2018-02-13T00:09:22.581Z,0
2018-02-13T00:10:32.969Z,0
2018-02-13T00:11:43.100Z,0
2018-02-13T00:12:53.247Z,0
2018-02-13T00:14:03.390Z,0
2018-02-13T00:15:13.253Z,0
2018-02-13T00:16:23.581Z,0
2018-02-13T00:17:33.790Z,0
2018-02-13T00:18:44.019Z,0
2018-02-13T00:19:54.167Z,0
2018-02-13T00:21:03.678Z,0
2018-02-13T00:22:13.794Z,0
2018-02-13T00:23:24.003Z,0
2018-02-13T00:24:34.132Z,0
2018-02-13T00:25:44.255Z,0
2018-02-13T00:26:54.496Z,0
2018-02-13T00:28:04.472Z,0
2018-02-13T00:29:14.609Z,0
2018-02-13T00:30:24.750Z,0
2018-02-13T00:31:34.886Z,0
2018-02-13T00:32:44.862Z,0
2018-02-13T00:33:55.014Z,0
2018-02-13T00:35:05.125Z,0
2018-02-13T00:36:15.339Z,0
2018-02-13T00:37:25.499Z,0
2018-02-13T00:38:35.625Z,0
2018-02-13T00:39:45.267Z,0
2018-02-13T00:40:55.409Z,0
2018-02-13T00:42:05.583Z,0
2018-02-13T00:43:15.714Z,0
2018-02-13T00:44:25.585Z,0
2018-02-13T00:45:35.707Z,0
2018-02-13T00:46:45.833Z,0
2018-02-13T00:47:56.012Z,0
2018-02-13T00:49:06.157Z,0
2018-02-13T00:50:16.289Z,0
2018-02-13T00:51:26.396Z,0
2018-02-13T00:52:36.516Z,0
2018-02-13T00:53:46.662Z,0
2018-02-13T00:54:56.830Z,0
2018-02-13T00:56:07.047Z,0
2018-02-13T00:57:17.185Z,0
2018-02-13T00:58:27.045Z,0
2018-02-13T00:59:37.253Z,0
2018-02-13T01:00:46.890Z,0
2018-02-13T01:01:57.004Z,0
2018-02-13T01:03:07.149Z,0
2018-02-13T01:04:17.270Z,0
2018-02-13T01:05:27.402Z,0
2018-02-13T01:06:37.560Z,0
2018-02-13T01:07:47.664Z,0
2018-02-13T01:08:57.828Z,0
2018-02-13T01:10:07.951Z,0
2018-02-13T01:11:18.252Z,0
2018-02-13T01:12:28.479Z,0
2018-02-13T01:13:38.587Z,0
2018-02-13T01:14:48.698Z,0
2018-02-13T01:15:58.861Z,0
2018-02-13T01:17:09.954Z,0
2018-02-13T01:18:20.059Z,0
2018-02-13T01:19:29.979Z,0
2018-02-13T01:20:39.902Z,0
2018-02-13T01:21:50.032Z,0
2018-02-13T01:23:00.138Z,0
2018-02-13T01:24:10.246Z,0
2018-02-13T01:25:20.377Z,0
2018-02-13T01:26:30.239Z,0
2018-02-13T01:27:40.335Z,0
2018-02-13T01:28:50.522Z,0
2018-02-13T01:30:00.658Z,0
2018-02-13T01:31:10.804Z,0
2018-02-13T01:32:21.074Z,0
2018-02-13T01:33:31.242Z,0
2018-02-13T01:34:41.366Z,0
2018-02-13T01:35:51.724Z,0
2018-02-13T01:37:02.198Z,0
2018-02-13T01:38:12.325Z,0
2018-02-13T01:39:22.179Z,0
2018-02-13T01:40:32.282Z,0
2018-02-13T01:41:43.445Z,0
2018-02-13T01:42:53.594Z,0
2018-02-13T01:44:03.722Z,0
2018-02-13T01:45:14.102Z,0
2018-02-13T01:46:24.213Z,0
2018-02-13T01:47:34.376Z,0
2018-02-13T01:48:44.477Z,0
2018-02-13T01:49:54.575Z,0
2018-02-13T01:51:04.734Z,0
2018-02-13T01:52:14.870Z,0
2018-02-13T01:53:25.046Z,0
2018-02-13T01:54:35.350Z,0
2018-02-13T01:55:45.565Z,0
2018-02-13T01:56:55.778Z,0
2018-02-13T01:58:06.083Z,0
2018-02-13T01:59:16.189Z,0
2018-02-13T02:00:26.350Z,0
2018-02-13T02:01:36.252Z,0
2018-02-13T02:02:46.367Z,0
2018-02-13T02:03:56.540Z,0
2018-02-13T02:05:06.894Z,0
2018-02-13T02:06:17.007Z,0
2018-02-13T02:07:27.128Z,0
2018-02-13T02:08:37.038Z,0
2018-02-13T02:09:47.231Z,0
2018-02-13T02:10:57.450Z,0
2018-02-13T02:12:07.327Z,0
2018-02-13T02:13:17.437Z,0
2018-02-13T02:14:27.181Z,0
2018-02-13T02:15:38.355Z,0
2018-02-13T02:16:48.622Z,0
2018-02-13T02:17:58.786Z,0
2018-02-13T02:19:08.985Z,0
2018-02-13T02:20:19.165Z,0
2018-02-13T02:21:29.431Z,0
2018-02-13T02:22:39.286Z,0
2018-02-13T02:23:49.421Z,0
2018-02-13T02:24:59.558Z,0
2018-02-13T02:26:09.753Z,0
2018-02-13T02:27:19.881Z,0
2018-02-13T02:28:29.982Z,0
2018-02-13T02:29:40.154Z,0
2018-02-13T02:30:50.014Z,0
2018-02-13T02:32:00.122Z,0
2018-02-13T02:33:10.241Z,0
2018-02-13T02:34:20.426Z,0
2018-02-13T02:35:30.550Z,0
2018-02-13T02:36:40.148Z,0
2018-02-13T02:37:50.271Z,0
2018-02-13T02:39:01.362Z,0
2018-02-13T02:40:11.220Z,0
2018-02-13T02:41:21.326Z,0
2018-02-13T02:42:31.533Z,0
2018-02-13T02:43:41.690Z,0
2018-02-13T02:44:51.720Z,0
2018-02-13T02:46:01.843Z,0
2018-02-13T02:47:11.959Z,0
2018-02-13T02:48:22.083Z,0
2018-02-13T02:49:32.356Z,0
2018-02-13T02:50:42.477Z,0
2018-02-13T02:51:52.581Z,0
2018-02-13T02:53:02.698Z,0
2018-02-13T02:54:12.846Z,0
2018-02-13T02:55:22.957Z,0
2018-02-13T02:56:33.142Z,0
2018-02-13T02:57:43.104Z,0
2018-02-13T02:58:53.223Z,0
2018-02-13T03:00:03.366Z,0
2018-02-13T03:01:13.474Z,0
2018-02-13T03:02:23.333Z,0
2018-02-13T03:03:33.492Z,0
2018-02-13T03:04:43.750Z,0
2018-02-13T03:05:53.953Z,0
2018-02-13T03:07:04.091Z,0
2018-02-13T03:08:13.972Z,0
2018-02-13T03:09:24.111Z,0
2018-02-13T03:10:34.342Z,0
2018-02-13T03:11:44.457Z,0
2018-02-13T03:12:54.561Z,0
2018-02-13T03:14:04.698Z,0
2018-02-13T03:15:14.832Z,0
2018-02-13T03:16:25.006Z,0
2018-02-13T03:17:35.132Z,0
2018-02-13T03:18:45.278Z,0
2018-02-13T03:19:56.348Z,0
2018-02-13T03:21:06.218Z,0
2018-02-13T03:22:16.193Z,0
2018-02-13T03:23:26.308Z,0
2018-02-13T03:24:36.408Z,0
2018-02-13T03:25:46.547Z,0
2018-02-13T03:26:56.408Z,0
2018-02-13T03:28:06.542Z,0
2018-02-13T03:29:16.666Z,0
2018-02-13T03:30:26.755Z,0
2018-02-13T03:31:36.874Z,0
2018-02-13T03:32:47.113Z,0
2018-02-13T03:33:57.358Z,0
2018-02-13T03:35:07.744Z,0
2018-02-13T03:36:17.900Z,0
2018-02-13T03:37:28.218Z,0
2018-02-13T03:38:38.333Z,0
2018-02-13T03:39:48.464Z,0
2018-02-13T03:40:58.715Z,0
2018-02-13T03:42:08.939Z,0
2018-02-13T03:43:18.885Z,0
2018-02-13T03:44:29.044Z,0
2018-02-13T03:45:39.153Z,0
2018-02-13T03:46:48.953Z,0
2018-02-13T03:47:59.064Z,0
2018-02-13T03:49:09.194Z,0
2018-02-13T03:50:19.426Z,0
2018-02-13T03:51:30.590Z,0
2018-02-13T03:52:40.796Z,0
2018-02-13T03:53:50.936Z,0
2018-02-13T03:55:01.790Z,0
2018-02-13T03:56:11.917Z,0
2018-02-13T03:57:22.052Z,0
2018-02-13T03:58:32.162Z,0
2018-02-13T03:59:42.274Z,0
2018-02-13T04:00:53.414Z,0
2018-02-13T04:02:03.629Z,0
2018-02-13T04:03:14.010Z,0
2018-02-13T04:04:24.826Z,0
2018-02-13T04:05:34.941Z,0
2018-02-13T04:06:45.047Z,0
2018-02-13T04:07:55.174Z,0
2018-02-13T04:09:05.286Z,0
2018-02-13T04:10:15.395Z,0
2018-02-13T04:11:25.522Z,0
2018-02-13T04:12:35.717Z,0
2018-02-13T04:13:45.915Z,0
2018-02-13T04:14:56.188Z,0
2018-02-13T04:16:06.403Z,0
2018-02-13T04:17:16.515Z,0
2018-02-13T04:18:26.764Z,0
2018-02-13T04:19:36.971Z,0
2018-02-13T04:20:47.189Z,0
2018-02-13T04:21:57.438Z,0
2018-02-13T04:23:07.609Z,0
2018-02-13T04:24:17.887Z,0
2018-02-13T04:25:28.128Z,0
2018-02-13T04:26:38.387Z,0
2018-02-13T04:27:48.519Z,0
2018-02-13T04:28:58.706Z,0
2018-02-13T04:30:08.839Z,0
2018-02-13T04:31:18.824Z,0
2018-02-13T04:32:28.932Z,0
2018-02-13T04:33:39.093Z,0
2018-02-13T04:34:49.334Z,0
2018-02-13T04:35:59.521Z,0
2018-02-13T04:37:09.680Z,0
2018-02-13T04:38:19.978Z,0
2018-02-13T04:39:29.826Z,0
2018-02-13T04:40:40.084Z,0
2018-02-13T04:41:50.312Z,0
2018-02-13T04:43:00.455Z,0
2018-02-13T04:44:10.559Z,0
2018-02-13T04:45:20.899Z,0
2018-02-13T04:46:31.037Z,0
2018-02-13T04:47:41.307Z,0
2018-02-13T04:48:51.509Z,0
2018-02-13T04:50:01.439Z,0
2018-02-13T04:51:11.558Z,0
2018-02-13T04:52:21.693Z,0
2018-02-13T04:53:31.538Z,0
2018-02-13T04:54:41.683Z,0
2018-02-13T04:55:52.027Z,0
2018-02-13T04:57:02.246Z,0
2018-02-13T04:58:12.430Z,0
2018-02-13T04:59:22.661Z,0
2018-02-13T05:00:32.513Z,0
2018-02-13T05:01:42.660Z,0
2018-02-13T05:02:52.837Z,0
2018-02-13T05:04:02.709Z,0
2018-02-13T05:05:12.572Z,0
2018-02-13T05:06:22.505Z,0
2018-02-13T05:07:32.366Z,0
2018-02-13T05:08:42.481Z,0
2018-02-13T05:09:52.674Z,0
2018-02-13T05:11:02.857Z,0
2018-02-13T05:12:13.060Z,0
2018-02-13T05:13:22.994Z,0
2018-02-13T05:14:32.846Z,0
2018-02-13T05:15:42.975Z,0
2018-02-13T05:16:53.070Z,0
2018-02-13T05:18:03.234Z,0
2018-02-13T05:19:13.418Z,0
2018-02-13T05:20:23.588Z,0
2018-02-13T05:21:33.857Z,0
2018-02-13T05:22:44.187Z,0
2018-02-13T05:23:54.406Z,0
2018-02-13T05:25:04.538Z,0
2018-02-13T05:26:14.679Z,0
2018-02-13T05:27:24.984Z,0
2018-02-13T05:28:35.368Z,0
2018-02-13T05:29:45.537Z,0
2018-02-13T05:30:55.769Z,0
2018-02-13T05:32:05.926Z,0
2018-02-13T05:33:16.204Z,0
2018-02-13T05:34:26.479Z,0
2018-02-13T05:35:36.619Z,0
2018-02-13T05:36:46.357Z,0
2018-02-13T05:37:56.606Z,0
2018-02-13T05:39:06.463Z,0
2018-02-13T05:40:16.316Z,0
2018-02-13T05:41:26.202Z,0
2018-02-13T05:42:36.330Z,0
2018-02-13T05:43:46.457Z,0
2018-02-13T05:44:56.599Z,0
2018-02-13T05:46:06.737Z,0
2018-02-13T05:47:16.859Z,0
2018-02-13T05:48:27.052Z,0
2018-02-13T05:49:37.161Z,0
2018-02-13T05:50:47.288Z,0
2018-02-13T05:51:57.374Z,0
2018-02-13T05:53:07.491Z,0
2018-02-13T05:54:17.606Z,0
2018-02-13T05:55:27.733Z,0
2018-02-13T05:56:37.849Z,0
2018-02-13T05:57:47.692Z,0
2018-02-13T05:58:57.797Z,0
2018-02-13T06:00:07.930Z,0
2018-02-13T06:01:18.041Z,0
2018-02-13T06:02:27.954Z,0
2018-02-13T06:03:37.828Z,0
2018-02-13T06:04:47.956Z,0
2018-02-13T06:05:58.066Z,0
2018-02-13T06:07:08.268Z,0
2018-02-13T06:08:17.999Z,0
2018-02-13T06:09:28.158Z,0
2018-02-13T06:10:38.427Z,0
2018-02-13T06:11:48.580Z,0
2018-02-13T06:12:58.832Z,0
2018-02-13T06:14:09.004Z,0
2018-02-13T06:15:18.946Z,0
2018-02-13T06:16:29.056Z,0
2018-02-13T06:17:38.903Z,0
2018-02-13T06:18:49.025Z,0
2018-02-13T06:19:59.149Z,0
2018-02-13T06:21:09.374Z,0
2018-02-13T06:22:19.326Z,0
2018-02-13T06:23:29.425Z,0
2018-02-13T06:24:39.568Z,0
2018-02-13T06:25:49.720Z,5
2018-02-13T06:26:59.970Z,5
2018-02-13T06:28:10.093Z,5
2018-02-13T06:29:20.233Z,5
2018-02-13T06:30:30.333Z,5
2018-02-13T06:31:40.493Z,5
2018-02-13T06:32:50.342Z,10
2018-02-13T06:34:00.459Z,10
2018-02-13T06:35:10.557Z,10
2018-02-13T06:36:20.724Z,10
2018-02-13T06:37:30.844Z,15
2018-02-13T06:38:40.931Z,15
2018-02-13T06:39:51.064Z,15
2018-02-13T06:41:01.180Z,15
2018-02-13T06:42:11.358Z,20
2018-02-13T06:43:21.593Z,20
2018-02-13T06:44:31.793Z,20
2018-02-13T06:45:41.637Z,25
2018-02-13T06:46:52.743Z,25
2018-02-13T06:48:02.877Z,25
2018-02-13T06:49:12.746Z,30
2018-02-13T06:50:22.892Z,30
2018-02-13T06:51:33.159Z,30
2018-02-13T06:52:43.507Z,35
2018-02-13T06:53:53.633Z,35
2018-02-13T06:55:03.568Z,40
2018-02-13T06:56:13.678Z,40
2018-02-13T06:57:23.794Z,40
2018-02-13T06:58:33.293Z,45
2018-02-13T06:59:43.411Z,45
2018-02-13T07:00:53.513Z,50
2018-02-13T07:02:03.645Z,50
2018-02-13T07:03:13.826Z,55
2018-02-13T07:04:23.705Z,55
2018-02-13T07:05:33.930Z,60
2018-02-13T07:06:44.123Z,65
2018-02-13T07:07:54.335Z,70
2018-02-13T07:09:04.285Z,70
2018-02-13T07:10:14.389Z,75
2018-02-13T07:11:24.722Z,75
2018-02-13T07:12:34.589Z,85
2018-02-13T07:13:44.174Z,90
2018-02-13T07:14:54.279Z,100
2018-02-13T07:16:04.406Z,110
2018-02-13T07:17:14.603Z,135
2018-02-13T07:18:24.933Z,160
2018-02-13T07:19:35.138Z,175
2018-02-13T07:20:45.346Z,180
2018-02-13T07:21:55.207Z,190
2018-02-13T07:23:05.420Z,200
2018-02-13T07:24:15.568Z,210
2018-02-13T07:25:25.786Z,220
2018-02-13T07:26:35.928Z,210
2018-02-13T07:27:46.520Z,235
2018-02-13T07:28:56.529Z,245
2018-02-13T07:30:06.645Z,260
2018-02-13T07:31:16.824Z,270
2018-02-13T07:32:26.924Z,280
2018-02-13T07:33:37.036Z,290
2018-02-13T07:34:47.152Z,300
2018-02-13T07:35:57.049Z,305
2018-02-13T07:37:07.178Z,310
2018-02-13T07:38:17.323Z,320
2018-02-13T07:39:27.535Z,335
2018-02-13T07:40:37.698Z,335
2018-02-13T07:41:47.578Z,340
2018-02-13T07:42:57.735Z,355
2018-02-13T07:44:07.878Z,360
2018-02-13T07:45:18.029Z,370
2018-02-13T07:46:28.198Z,380
2018-02-13T07:47:38.342Z,395
2018-02-13T07:48:48.518Z,405
2018-02-13T07:49:58.648Z,420
2018-02-13T07:51:08.260Z,430
2018-02-13T07:52:18.413Z,450
2018-02-13T07:53:28.533Z,460
2018-02-13T07:54:38.660Z,465
2018-02-13T07:55:48.838Z,475
2018-02-13T07:56:58.973Z,485
2018-02-13T07:58:09.088Z,510
2018-02-13T07:59:19.213Z,495
2018-02-13T08:00:29.349Z,550
2018-02-13T08:01:39.220Z,560
2018-02-13T08:02:49.423Z,565
2018-02-13T08:03:59.680Z,565
2018-02-13T08:05:09.818Z,570
2018-02-13T08:06:19.805Z,590
2018-02-13T08:07:29.947Z,610
2018-02-13T08:08:40.073Z,620
2018-02-13T08:09:50.242Z,640
2018-02-13T08:11:00.535Z,640
2018-02-13T08:12:10.816Z,645
2018-02-13T08:13:21.090Z,655
2018-02-13T08:14:31.237Z,680
2018-02-13T08:15:41.410Z,725
2018-02-13T08:16:51.706Z,730
2018-02-13T08:18:01.840Z,715
2018-02-13T08:19:12.040Z,735
2018-02-13T08:20:22.226Z,745
2018-02-13T08:21:32.375Z,745
2018-02-13T08:22:42.569Z,740
2018-02-13T08:23:52.695Z,745
2018-02-13T08:25:02.806Z,775
2018-02-13T08:26:12.961Z,785
2018-02-13T08:27:23.181Z,800
2018-02-13T08:28:33.353Z,810
2018-02-13T08:29:43.542Z,810
2018-02-13T08:30:53.751Z,825
2018-02-13T08:32:03.626Z,850
2018-02-13T08:33:14.812Z,855
2018-02-13T08:34:25.038Z,850
2018-02-13T08:35:35.267Z,840
2018-02-13T08:36:47.761Z,850
2018-02-13T08:37:58.985Z,865
2018-02-13T08:39:09.268Z,900
2018-02-13T08:40:19.138Z,940
2018-02-13T08:41:29.256Z,940
2018-02-13T08:42:39.020Z,965
2018-02-13T08:43:49.186Z,1025
2018-02-13T08:44:59.416Z,1015
2018-02-13T08:46:09.572Z,990
2018-02-13T08:47:19.401Z,1000
2018-02-13T08:48:29.559Z,1070
2018-02-13T08:49:39.766Z,1075
2018-02-13T08:50:49.976Z,1035
2018-02-13T08:52:00.197Z,1025
2018-02-13T08:53:10.403Z,1010
2018-02-13T08:54:20.601Z,1005
2018-02-13T08:55:30.882Z,1045
2018-02-13T08:56:41.182Z,1100
2018-02-13T08:57:51.313Z,1135
2018-02-13T08:59:01.523Z,1110
2018-02-13T09:00:11.703Z,1095
2018-02-13T09:01:21.578Z,1100
2018-02-13T09:02:31.906Z,1120
2018-02-13T09:03:42.031Z,1175
2018-02-13T09:04:52.172Z,1195
2018-02-13T09:06:02.548Z,1180
2018-02-13T09:07:12.694Z,1235
2018-02-13T09:08:22.553Z,1330
2018-02-13T09:09:32.183Z,1320
2018-02-13T09:10:42.479Z,1260
2018-02-13T09:11:52.633Z,1280
2018-02-13T09:13:02.774Z,1340
2018-02-13T09:14:13.158Z,1345
2018-02-13T09:15:26.659Z,1290
2018-02-13T09:16:36.913Z,1270
2018-02-13T09:17:47.230Z,1255
2018-02-13T09:18:57.396Z,1265
2018-02-13T09:20:07.524Z,1295
2018-02-13T09:21:17.478Z,1335
2018-02-13T09:22:27.597Z,1300
2018-02-13T09:23:37.932Z,1290
2018-02-13T09:24:48.068Z,1340
2018-02-13T09:25:58.244Z,1425
2018-02-13T09:28:20.772Z,1455
2018-02-13T09:29:30.910Z,1425
2018-02-13T09:30:41.038Z,1475
2018-02-13T09:31:51.168Z,1530
2018-02-13T09:33:01.438Z,1475
2018-02-13T09:34:11.669Z,1400
2018-02-13T09:35:21.951Z,1340
2018-02-13T09:36:32.097Z,1300
2018-02-13T09:37:42.382Z,1310
2018-02-13T09:38:52.504Z,1370
2018-02-13T09:40:02.643Z,1430
2018-02-13T09:41:12.822Z,1455
2018-02-13T09:42:22.589Z,1480
2018-02-13T09:43:32.383Z,1480
2018-02-13T09:44:42.512Z,1430
2018-02-13T09:45:52.754Z,1420
2018-02-13T09:47:02.738Z,1410
2018-02-13T09:48:12.919Z,1420
2018-02-13T09:49:23.079Z,1410
2018-02-13T09:50:33.378Z,1415
2018-02-13T09:51:43.284Z,1440
2018-02-13T09:52:53.434Z,1480
2018-02-13T09:54:03.189Z,1555
2018-02-13T09:55:13.312Z,1590
2018-02-13T09:56:23.521Z,1635
2018-02-13T09:57:33.665Z,1630
2018-02-13T09:58:43.586Z,1565
2018-02-13T09:59:53.765Z,1510
2018-02-13T10:01:03.923Z,1475
2018-02-13T10:02:14.050Z,1485
2018-02-13T10:03:24.043Z,1515
2018-02-13T10:04:34.280Z,1515
2018-02-13T10:05:44.203Z,1585
2018-02-13T10:06:54.211Z,1560
2018-02-13T10:08:05.312Z,1535
2018-02-13T10:09:15.432Z,1530
2018-02-13T10:10:25.356Z,1510
2018-02-13T10:11:35.480Z,1490
2018-02-13T10:12:45.641Z,1515
2018-02-13T10:13:55.805Z,1565
2018-02-13T10:15:05.936Z,1625
2018-02-13T10:16:15.843Z,1640
2018-02-13T10:17:25.998Z,1570
2018-02-13T10:18:36.152Z,1535
2018-02-13T10:19:45.931Z,1525
2018-02-13T10:20:56.134Z,1550
2018-02-13T10:22:05.935Z,1580
2018-02-13T10:23:16.092Z,1595
2018-02-13T10:24:25.963Z,1605
2018-02-13T10:25:36.174Z,1610
2018-02-13T10:26:46.293Z,1630
2018-02-13T10:27:56.588Z,1630
2018-02-13T10:29:06.754Z,1625
2018-02-13T10:30:16.959Z,1615
2018-02-13T10:31:27.151Z,1600
2018-02-13T10:32:37.375Z,1610
2018-02-13T10:33:47.267Z,1650
2018-02-13T10:34:57.434Z,1720
2018-02-13T10:36:07.713Z,1790
2018-02-13T10:37:17.861Z,1900
2018-02-13T10:38:28.980Z,1935
2018-02-13T10:39:39.132Z,1915
2018-02-13T10:40:49.328Z,1865
2018-02-13T10:41:59.527Z,1895
2018-02-13T10:43:09.659Z,1880
2018-02-13T10:44:20.141Z,1870
2018-02-13T10:45:30.019Z,1890
2018-02-13T10:46:40.149Z,1910
2018-02-13T10:47:50.373Z,1875
2018-02-13T10:49:00.946Z,1770
2018-02-13T10:50:10.830Z,1705
2018-02-13T10:51:21.028Z,1705
2018-02-13T10:52:31.174Z,1765
2018-02-13T10:53:41.349Z,1860
2018-02-13T10:54:51.575Z,1880
2018-02-13T10:56:01.725Z,1815
2018-02-13T10:57:11.866Z,1785
2018-02-13T10:58:21.774Z,1760
2018-02-13T10:59:31.979Z,1710
2018-02-13T11:00:42.164Z,1660
2018-02-13T11:01:52.419Z,1665
2018-02-13T11:03:02.568Z,1700
2018-02-13T11:04:12.719Z,1715
2018-02-13T11:05:24.084Z,1730
2018-02-13T11:06:34.255Z,1760
2018-02-13T11:07:44.513Z,1855
2018-02-13T11:08:54.648Z,1930
2018-02-13T11:10:04.543Z,1900
2018-02-13T11:11:14.722Z,1820
2018-02-13T11:12:24.980Z,1720
2018-02-13T11:13:34.926Z,1625
2018-02-13T11:14:45.072Z,1610
2018-02-13T11:15:55.265Z,1630
2018-02-13T11:17:05.427Z,1615
2018-02-13T11:18:15.711Z,1610
2018-02-13T11:19:25.850Z,1635
2018-02-13T11:20:36.009Z,1670
2018-02-13T11:21:46.201Z,1725
2018-02-13T11:22:56.090Z,1770
2018-02-13T11:24:06.249Z,1780
2018-02-13T11:25:16.394Z,1780
2018-02-13T11:26:26.591Z,1785
2018-02-13T11:27:36.940Z,1850
2018-02-13T11:28:47.102Z,1920
2018-02-13T11:29:57.372Z,1940
2018-02-13T11:31:07.141Z,1895
2018-02-13T11:32:17.395Z,1830
2018-02-13T11:33:27.533Z,1755
2018-02-13T11:34:37.763Z,1710
2018-02-13T11:35:47.936Z,1695
2018-02-13T11:36:58.088Z,1750
2018-02-13T11:38:08.238Z,1835
2018-02-13T11:39:18.412Z,1895
2018-02-13T11:40:29.536Z,1900
2018-02-13T11:41:39.668Z,1890
2018-02-13T11:42:49.481Z,1835
2018-02-13T11:43:59.601Z,1780
2018-02-13T11:45:09.778Z,1725
2018-02-13T11:46:19.989Z,1695
2018-02-13T11:47:30.118Z,1710
2018-02-13T11:48:40.329Z,1745
2018-02-13T11:49:50.456Z,1760
2018-02-13T11:51:00.315Z,1780
2018-02-13T11:52:10.467Z,1810
2018-02-13T11:53:20.708Z,1850
2018-02-13T11:54:30.970Z,1930
2018-02-13T11:55:41.261Z,1970
2018-02-13T11:56:51.598Z,1950
2018-02-13T11:58:01.569Z,1890
2018-02-13T11:59:11.721Z,1795
2018-02-13T12:00:21.890Z,1735
2018-02-13T12:01:32.030Z,1720
2018-02-13T12:02:42.018Z,1760
2018-02-13T12:03:52.183Z,1785
2018-02-13T12:05:02.430Z,1745
2018-02-13T12:06:12.350Z,1745
2018-02-13T12:07:22.550Z,1770
2018-02-13T12:08:32.355Z,1805
2018-02-13T12:09:42.481Z,1770
2018-02-13T12:10:52.636Z,1730
2018-02-13T12:12:02.777Z,1685
2018-02-13T12:13:13.033Z,1695
2018-02-13T12:14:23.168Z,1735
2018-02-13T12:15:33.077Z,1790
2018-02-13T12:16:43.334Z,1835
2018-02-13T12:17:53.744Z,1830
2018-02-13T12:19:03.884Z,1805
2018-02-13T12:20:14.029Z,1745
2018-02-13T12:21:24.160Z,1670
2018-02-13T12:22:34.363Z,1615
2018-02-13T12:23:44.315Z,1595
2018-02-13T12:24:55.430Z,1595
2018-02-13T12:26:06.528Z,1610
2018-02-13T12:27:16.654Z,1640
2018-02-13T12:28:26.603Z,1675
2018-02-13T12:29:36.748Z,1680
2018-02-13T12:30:46.937Z,1645
2018-02-13T12:31:57.199Z,1675
2018-02-13T12:33:07.400Z,1740
2018-02-13T12:34:17.553Z,1810
2018-02-13T12:35:27.819Z,1815
2018-02-13T12:36:38.031Z,1745
2018-02-13T12:37:48.187Z,1715
2018-02-13T12:38:58.402Z,1700
2018-02-13T12:40:08.308Z,1665
2018-02-13T12:41:18.476Z,1610
2018-02-13T12:42:28.935Z,1600
2018-02-13T12:43:39.440Z,1630
2018-02-13T12:44:49.676Z,1660
2018-02-13T12:45:59.839Z,1710
2018-02-13T12:47:10.221Z,1760
2018-02-13T12:48:20.358Z,1760
2018-02-13T12:49:30.505Z,1705
2018-02-13T12:50:41.308Z,1620
2018-02-13T12:51:51.704Z,1515
2018-02-13T12:53:02.065Z,1455
2018-02-13T12:54:12.540Z,1425
2018-02-13T12:55:22.692Z,1455
2018-02-13T12:56:32.840Z,1465
2018-02-13T12:57:43.006Z,1485
2018-02-13T12:58:53.438Z,1470
2018-02-13T13:00:04.149Z,1475
2018-02-13T13:01:14.525Z,1505
2018-02-13T13:02:24.758Z,1525
2018-02-13T13:03:35.293Z,1535
2018-02-13T13:04:45.708Z,1535
2018-02-13T13:05:56.100Z,1490
2018-02-13T13:07:06.283Z,1455
2018-02-13T13:08:16.416Z,1425
2018-02-13T13:09:26.815Z,1410
2018-02-13T13:10:37.917Z,1425
2018-02-13T13:11:48.124Z,1440
2018-02-13T13:13:00.141Z,1430
2018-02-13T13:14:10.811Z,1425
2018-02-13T13:15:22.182Z,1415
2018-02-13T13:16:32.422Z,1425
2018-02-13T13:17:42.464Z,1460
2018-02-13T13:18:52.667Z,1450
2018-02-13T13:20:03.003Z,1410
2018-02-13T13:21:13.955Z,1350
2018-02-13T13:22:27.612Z,1400
2018-02-13T13:23:38.981Z,1470
2018-02-13T13:24:49.593Z,1455
2018-02-13T13:26:00.589Z,1355
2018-02-13T13:27:11.758Z,1450
2018-02-13T13:28:23.089Z,1490
2018-02-13T13:29:34.468Z,1430
2018-02-13T13:30:46.308Z,1360
2018-02-13T13:31:56.451Z,795
2018-02-13T13:34:22.148Z,1305
2018-02-13T13:35:32.342Z,1380
2018-02-13T13:36:42.803Z,1375
2018-02-13T13:37:52.969Z,1305
2018-02-13T13:39:03.333Z,1275
2018-02-13T13:40:13.494Z,1325
2018-02-13T13:41:23.727Z,1400
2018-02-13T13:42:34.299Z,1465
2018-02-13T13:43:44.897Z,1455
2018-02-13T13:44:54.808Z,1340
2018-02-13T13:46:06.198Z,1245
2018-02-13T13:47:16.790Z,1210
2018-02-13T13:48:26.968Z,1205
2018-02-13T13:49:37.165Z,1195
2018-02-13T13:50:47.417Z,1165
2018-02-13T13:51:57.576Z,1145
2018-02-13T13:53:08.407Z,1155
2018-02-13T13:54:19.235Z,1200
2018-02-13T13:55:30.059Z,1130
2018-02-13T13:56:40.241Z,890
2018-02-13T13:57:50.425Z,620
2018-02-13T13:59:00.600Z,430
2018-02-13T14:00:11.010Z,380
2018-02-13T14:01:21.224Z,385
2018-02-13T14:02:31.436Z,325
2018-02-13T14:03:41.802Z,305
2018-02-13T14:04:52.545Z,295
2018-02-13T14:06:02.731Z,280
2018-02-13T14:07:12.938Z,275
2018-02-13T14:08:23.326Z,270
2018-02-13T14:09:33.777Z,260
2018-02-13T14:10:44.239Z,255
2018-02-13T14:11:54.866Z,250
2018-02-13T14:13:05.178Z,255
2018-02-13T14:14:15.357Z,330
2018-02-13T14:15:25.098Z,350
2018-02-13T14:16:35.077Z,330
2018-02-13T14:17:45.238Z,305
2018-02-13T14:18:55.368Z,305
2018-02-13T14:20:05.550Z,285
2018-02-13T14:21:15.676Z,280
2018-02-13T14:22:26.043Z,270
2018-02-13T14:23:35.897Z,265
2018-02-13T14:24:46.014Z,260
2018-02-13T14:25:56.581Z,260
2018-02-13T14:27:07.438Z,255
2018-02-13T14:28:17.771Z,250
2018-02-13T14:29:28.541Z,250
2018-02-13T14:30:38.435Z,240
2018-02-13T14:31:48.561Z,230
2018-02-13T14:32:58.446Z,225
2018-02-13T14:34:08.856Z,225
2018-02-13T14:35:19.691Z,225
2018-02-13T14:36:29.952Z,225
2018-02-13T14:37:40.332Z,220
2018-02-13T14:38:50.447Z,215
2018-02-13T14:40:00.583Z,210
2018-02-13T14:41:10.723Z,210
2018-02-13T14:42:20.966Z,210
2018-02-13T14:43:30.983Z,210
2018-02-13T14:44:41.138Z,185
2018-02-13T14:45:51.000Z,180
2018-02-13T14:47:01.171Z,185
2018-02-13T14:48:12.264Z,380
2018-02-13T14:49:22.390Z,545
2018-02-13T14:50:34.394Z,635
2018-02-13T14:51:45.529Z,625
2018-02-13T14:52:55.654Z,285
2018-02-13T14:54:05.909Z,440
2018-02-13T14:55:16.055Z,645
2018-02-13T14:56:26.190Z,635
2018-02-13T14:57:36.588Z,645
2018-02-13T14:58:46.989Z,645
2018-02-13T14:59:57.250Z,630
2018-02-13T15:01:07.430Z,620
2018-02-13T15:02:17.497Z,615
2018-02-13T15:03:27.649Z,610
2018-02-13T15:04:37.777Z,605
2018-02-13T15:07:05.451Z,595
2018-02-13T15:08:15.773Z,590
2018-02-13T15:09:26.146Z,590
2018-02-13T15:10:36.321Z,500
2018-02-13T15:11:48.494Z,355
2018-02-13T15:12:58.620Z,245
2018-02-13T15:14:08.795Z,210
2018-02-13T15:16:34.858Z,190
2018-02-13T15:17:45.231Z,175
2018-02-13T15:21:22.406Z,160
2018-02-13T15:22:32.767Z,160
2018-02-13T15:23:42.923Z,155
2018-02-13T15:24:53.363Z,150
2018-02-13T15:26:04.675Z,145
2018-02-13T15:27:17.232Z,140
2018-02-13T15:28:27.422Z,135
2018-02-13T15:29:37.596Z,135
2018-02-13T15:30:48.423Z,130
2018-02-13T15:31:58.586Z,125
2018-02-13T15:35:34.748Z,110
2018-02-13T15:36:44.909Z,105
2018-02-13T15:37:55.093Z,100
2018-02-13T15:40:17.143Z,90
2018-02-13T15:41:27.258Z,85
2018-02-13T15:42:37.178Z,80
2018-02-13T15:43:47.311Z,75
2018-02-13T15:44:57.455Z,70
2018-02-13T15:46:07.667Z,70
2018-02-13T15:47:17.786Z,70
2018-02-13T15:48:28.949Z,65
2018-02-13T15:49:39.187Z,65
2018-02-13T15:50:49.344Z,60
2018-02-13T15:51:59.526Z,60
2018-02-13T15:53:09.688Z,60
2018-02-13T15:54:19.825Z,55
2018-02-13T15:55:30.011Z,55
2018-02-13T15:56:41.136Z,55
2018-02-13T15:57:51.396Z,50
2018-02-13T15:59:01.540Z,50
2018-02-13T16:00:11.731Z,45
2018-02-13T16:01:21.882Z,45
2018-02-13T16:02:32.029Z,40
2018-02-13T16:03:42.181Z,40
2018-02-13T16:04:52.406Z,40
2018-02-13T16:06:02.536Z,35
2018-02-13T16:07:12.678Z,35
2018-02-13T16:08:22.828Z,30
2018-02-13T16:09:32.591Z,30
2018-02-13T16:10:42.769Z,30
2018-02-13T16:11:53.071Z,25
2018-02-13T16:13:03.192Z,25
2018-02-13T16:14:13.461Z,20
2018-02-13T16:15:23.725Z,20
2018-02-13T16:16:33.929Z,20
2018-02-13T16:17:44.166Z,15
2018-02-13T16:18:54.409Z,15
2018-02-13T16:20:03.815Z,15
2018-02-13T16:21:13.758Z,10
2018-02-13T16:22:23.898Z,10
2018-02-13T16:23:34.042Z,10
2018-02-13T16:24:44.217Z,10
2018-02-13T16:25:53.920Z,5
2018-02-13T16:27:05.076Z,5
2018-02-13T16:28:15.450Z,5
2018-02-13T16:29:25.611Z,5
2018-02-13T16:30:35.788Z,5
2018-02-13T16:31:45.938Z,5
2018-02-13T16:32:56.130Z,0
2018-02-13T16:34:06.582Z,0
2018-02-13T16:35:16.747Z,0
2018-02-13T16:36:26.380Z,0
2018-02-13T16:37:36.546Z,0